Time;durP1;ratioP1;P1;durP2;ratioP2;P2;SDS_P1;SDS_P2;PMS_P1;PMS_P2;Temp;Humidity;BMP_temperature;BMP_pressure;BME280_temperature;BME280_humidity;BME280_pressure;Samples;Min_cycle;Max_cycle;Signal;HPM_P1;HPM_P2
2024/01/02 00:01:02;;;;;;;7.90;5.30;;;-14.00;93.00;;;;;;5036904;28;20045;-82
2024/01/02 00:03:28;;;;;;;5.63;3.83;;;-14.10;93.00;;;;;;5035238;28;20031;-83
2024/01/02 00:05:54;;;;;;;11.05;5.00;;;-14.00;93.10;;;;;;5034800;28;20025;-82
2024/01/02 00:08:20;;;;;;;12.40;5.93;;;-14.10;93.20;;;;;;5016899;28;20022;-81
2024/01/02 00:10:46;;;;;;;8.50;6.57;;;-14.10;93.20;;;;;;5036765;28;20372;-81
2024/01/02 00:13:11;;;;;;;11.70;6.00;;;-14.10;93.10;;;;;;5036681;28;20055;-82
2024/01/02 00:15:38;;;;;;;12.02;6.38;;;-14.10;93.10;;;;;;5032356;28;20020;-82
2024/01/02 00:18:04;;;;;;;13.35;6.60;;;-14.20;93.20;;;;;;5033426;28;20025;-81
2024/01/02 00:20:30;;;;;;;12.90;8.07;;;-14.20;93.20;;;;;;5038691;28;20080;-83
2024/01/02 00:22:55;;;;;;;10.43;7.30;;;-14.20;93.30;;;;;;5037138;28;20037;-81
2024/01/02 00:25:21;;;;;;;9.07;4.77;;;-14.20;93.50;;;;;;5036992;28;20033;-82
2024/01/02 00:27:47;;;;;;;6.93;4.13;;;-14.30;93.20;;;;;;5018751;28;20025;-82
2024/01/02 00:30:13;;;;;;;15.57;6.47;;;-14.40;93.20;;;;;;5011254;28;20113;-81
2024/01/02 00:32:39;;;;;;;14.10;5.93;;;-14.60;93.20;;;;;;5037548;28;20049;-82
2024/01/02 00:35:06;;;;;;;8.50;4.70;;;-14.60;93.40;;;;;;5009597;28;20033;-82
2024/01/02 00:37:31;;;;;;;5.57;3.80;;;-14.60;93.50;;;;;;5040373;28;20022;-81
2024/01/02 00:39:57;;;;;;;4.57;3.50;;;-14.70;93.60;;;;;;5042345;28;20097;-84
2024/01/02 00:42:23;;;;;;;10.73;5.47;;;-14.80;93.60;;;;;;5023454;28;20057;-82
2024/01/02 00:44:49;;;;;;;8.40;5.33;;;-14.70;93.70;;;;;;5032464;28;20063;-82
2024/01/02 00:47:15;;;;;;;9.67;5.73;;;-14.70;93.80;;;;;;5030328;28;20056;-82
2024/01/02 00:49:40;;;;;;;14.13;6.50;;;-14.60;94.00;;;;;;5033712;28;20528;-82
2024/01/02 00:52:06;;;;;;;13.00;8.77;;;-14.60;94.00;;;;;;5033679;28;20021;-82
2024/01/02 00:54:49;;;;;;;11.43;6.73;;;-14.50;93.90;;;;;;5033913;28;20029;-82
2024/01/02 00:57:15;;;;;;;10.70;4.95;;;-14.50;93.80;;;;;;5020828;28;20064;-82
2024/01/02 00:59:41;;;;;;;10.17;5.80;;;-14.50;93.70;;;;;;5033632;28;20025;-82
2024/01/02 01:02:07;;;;;;;6.37;5.00;;;-14.50;93.70;;;;;;5033401;28;20093;-81
2024/01/02 01:04:32;;;;;;;10.30;5.23;;;-14.50;93.80;;;;;;5015735;28;20044;-83
2024/01/02 01:06:58;;;;;;;10.00;5.30;;;-14.50;93.80;;;;;;5033372;28;20495;-80
2024/01/02 01:09:24;;;;;;;9.67;5.07;;;-14.50;93.80;;;;;;5033468;28;20025;-83
2024/01/02 01:11:50;;;;;;;11.23;4.87;;;-14.40;93.80;;;;;;5032901;28;20459;-81
2024/01/02 01:14:15;;;;;;;10.43;5.67;;;-14.40;93.80;;;;;;5033522;28;20025;-82
2024/01/02 01:16:41;;;;;;;8.37;5.37;;;-14.40;93.80;;;;;;5020840;28;20057;-82
2024/01/02 01:19:07;;;;;;;10.17;5.63;;;-14.40;93.70;;;;;;5027185;28;20364;-82
2024/01/02 01:21:33;;;;;;;8.00;4.83;;;-14.30;93.70;;;;;;5024893;28;20025;-82
2024/01/02 01:23:58;;;;;;;13.50;4.47;;;-14.30;93.70;;;;;;5034411;28;20033;-82
2024/01/02 01:26:24;;;;;;;5.77;4.57;;;-14.30;93.70;;;;;;5033747;28;20018;-81
2024/01/02 01:28:50;;;;;;;4.97;3.80;;;-14.30;93.60;;;;;;5035507;28;20025;-81
2024/01/02 01:31:16;;;;;;;8.87;5.87;;;-14.30;93.50;;;;;;5029405;28;20032;-81
2024/01/02 01:33:42;;;;;;;6.03;3.40;;;-14.30;93.30;;;;;;5045528;28;20026;-80
2024/01/02 01:36:08;;;;;;;8.27;5.03;;;-14.40;93.30;;;;;;5053677;28;20064;-83
2024/01/02 01:38:34;;;;;;;10.75;5.50;;;-14.60;93.10;;;;;;5047335;28;20025;-82
2024/01/02 01:40:59;;;;;;;5.37;4.10;;;-14.80;93.20;;;;;;5032943;28;20114;-82
2024/01/02 01:43:25;;;;;;;1.67;1.50;;;-14.80;93.50;;;;;;5033163;28;20021;-82
2024/01/02 01:45:51;;;;;;;7.90;3.63;;;-14.80;93.50;;;;;;5033159;28;20108;-81
2024/01/02 01:48:21;;;;;;;8.77;5.67;;;-14.90;93.50;;;;;;5033053;28;20017;-81
2024/01/02 01:50:48;;;;;;;12.25;6.25;;;-15.00;93.50;;;;;;5002801;28;20025;-81
2024/01/02 01:53:31;;;;;;;7.80;4.15;;;-15.10;93.50;;;;;;4994299;28;20032;-83
2024/01/02 01:55:58;;;;;;;10.82;5.43;;;-15.20;93.70;;;;;;4995773;28;20042;-82
2024/01/02 01:58:32;;;;;;;7.80;3.80;;;-15.20;93.90;;;;;;5028437;28;20051;-82
2024/01/02 02:00:58;;;;;;;9.60;6.28;;;-15.30;93.90;;;;;;4996992;28;20049;-82
2024/01/02 02:03:27;;;;;;;4.80;3.03;;;-15.40;93.90;;;;;;5016735;28;20021;-82
2024/01/02 02:05:53;;;;;;;6.10;4.55;;;-15.60;93.80;;;;;;5032985;28;20057;-81
2024/01/02 02:08:19;;;;;;;3.43;3.07;;;-15.60;94.00;;;;;;5030628;28;20493;-80
2024/01/02 02:10:45;;;;;;;5.80;3.60;;;-15.70;94.10;;;;;;5036359;28;20031;-82
2024/01/02 02:13:11;;;;;;;9.63;4.53;;;-15.70;94.20;;;;;;5044978;28;20100;-82
2024/01/02 02:15:40;;;;;;;9.80;5.20;;;-15.60;94.50;;;;;;5035385;28;20025;-82
2024/01/02 02:18:06;;;;;;;8.13;6.50;;;-15.50;94.40;;;;;;5040879;28;20060;-81
2024/01/02 02:20:32;;;;;;;3.88;2.50;;;-15.50;94.30;;;;;;5054835;28;20048;-82
2024/01/02 02:22:58;;;;;;;8.10;3.40;;;-15.50;94.20;;;;;;5012953;28;20113;-82
2024/01/02 02:25:23;;;;;;;8.07;4.20;;;-15.50;94.20;;;;;;5015340;28;20048;-83
2024/01/02 02:27:49;;;;;;;10.17;5.23;;;-15.50;94.20;;;;;;5024049;28;20388;-82
2024/01/02 02:30:15;;;;;;;8.77;3.83;;;-15.50;94.30;;;;;;4994843;28;20112;-80
2024/01/02 02:32:41;;;;;;;8.88;5.20;;;-15.40;94.30;;;;;;4995294;28;20102;-82
2024/01/02 02:35:08;;;;;;;11.27;4.27;;;-15.40;94.20;;;;;;5025500;28;20037;-83
2024/01/02 02:37:34;;;;;;;7.38;4.78;;;-15.40;94.20;;;;;;5018451;28;20378;-81
2024/01/02 02:40:00;;;;;;;7.97;3.30;;;-15.30;94.20;;;;;;5032326;28;20088;-82
2024/01/02 02:42:26;;;;;;;11.70;6.10;;;-15.20;94.00;;;;;;5001386;28;20459;-82
2024/01/02 02:44:51;;;;;;;7.80;5.83;;;-15.10;93.90;;;;;;5032538;28;20062;-81
2024/01/02 02:47:17;;;;;;;5.80;4.20;;;-15.10;93.30;;;;;;5032710;28;20482;-81
2024/01/02 02:49:43;;;;;;;10.03;6.90;;;-15.20;93.20;;;;;;5008865;28;20029;-83
2024/01/02 02:52:09;;;;;;;7.67;4.73;;;-15.10;93.00;;;;;;5025393;28;20022;-82
2024/01/02 02:54:35;;;;;;;5.80;4.07;;;-15.20;92.90;;;;;;5019342;28;20041;-82
2024/01/02 02:57:01;;;;;;;8.43;3.57;;;-15.20;93.00;;;;;;5023277;28;20494;-84
2024/01/02 02:59:27;;;;;;;12.00;4.70;;;-15.20;92.90;;;;;;5035603;28;20443;-81
2024/01/02 03:01:53;;;;;;;7.50;4.77;;;-15.20;92.90;;;;;;5035817;28;20131;-83
2024/01/02 03:04:18;;;;;;;5.80;2.93;;;-15.30;92.90;;;;;;5038399;28;20040;-82
2024/01/02 03:06:44;;;;;;;9.57;3.83;;;-15.40;92.80;;;;;;5036894;28;20098;-81
2024/01/02 03:09:10;;;;;;;6.90;4.90;;;-15.50;92.90;;;;;;5036773;28;20025;-81
2024/01/02 03:11:36;;;;;;;8.83;3.80;;;-15.70;92.90;;;;;;5035332;28;20045;-82
2024/01/02 03:14:03;;;;;;;8.25;3.30;;;-15.70;93.00;;;;;;5036029;28;20061;-81
2024/01/02 03:16:29;;;;;;;3.87;2.70;;;-15.90;93.10;;;;;;5035712;28;20026;-82
2024/01/02 03:18:55;;;;;;;5.18;3.72;;;-16.00;93.30;;;;;;5035478;28;20431;-83
2024/01/02 03:21:28;;;;;;;5.93;3.63;;;-16.00;93.50;;;;;;5035585;28;20032;-83
2024/01/02 03:23:55;;;;;;;3.63;2.55;;;-16.10;93.50;;;;;;4999330;28;20390;-83
2024/01/02 03:26:21;;;;;;;9.05;4.07;;;-16.10;93.50;;;;;;5026401;28;20029;-83
2024/01/02 03:28:47;;;;;;;6.43;3.75;;;-16.20;93.60;;;;;;5031032;28;20022;-81
2024/01/02 03:31:13;;;;;;;4.27;2.83;;;-16.20;93.70;;;;;;5035299;28;20112;-81
2024/01/02 03:33:39;;;;;;;8.20;4.10;;;-16.20;93.70;;;;;;5021088;28;20338;-81
2024/01/02 03:36:11;;;;;;;9.80;4.27;;;-16.20;93.50;;;;;;5035479;28;20066;-82
2024/01/02 03:38:36;;;;;;;7.65;5.40;;;-16.30;93.60;;;;;;5035143;28;20667;-82
2024/01/02 03:41:02;;;;;;;6.93;4.33;;;-16.40;93.60;;;;;;5043017;28;20026;-81
2024/01/02 03:43:28;;;;;;;2.73;2.27;;;-16.40;93.70;;;;;;5047231;28;20092;-82
2024/01/02 03:45:54;;;;;;;8.27;5.63;;;-16.50;93.90;;;;;;5035716;28;20037;-82
2024/01/02 03:48:20;;;;;;;7.13;3.87;;;-16.40;94.00;;;;;;5035382;28;20025;-83
2024/01/02 03:50:46;;;;;;;13.73;5.90;;;-16.50;94.00;;;;;;5035191;28;20021;-81
2024/01/02 03:53:12;;;;;;;6.13;2.47;;;-16.60;94.00;;;;;;5032371;28;20026;-82
2024/01/02 03:55:38;;;;;;;2.67;2.28;;;-16.70;94.10;;;;;;5015736;28;20018;-80
2024/01/02 03:58:04;;;;;;;4.23;2.23;;;-16.70;94.10;;;;;;5031406;28;20433;-82
2024/01/02 04:00:29;;;;;;;6.83;4.17;;;-16.70;94.20;;;;;;5036258;28;20021;-80
2024/01/02 04:02:55;;;;;;;8.60;3.47;;;-16.80;94.30;;;;;;5042769;28;20311;-81
2024/01/02 04:05:21;;;;;;;8.90;5.23;;;-16.70;94.40;;;;;;5047010;28;20418;-83
2024/01/02 04:07:47;;;;;;;7.30;3.65;;;-16.80;94.30;;;;;;5035399;28;20123;-82
2024/01/02 04:10:14;;;;;;;8.80;4.43;;;-16.80;94.30;;;;;;5034549;28;20484;-82
2024/01/02 04:12:39;;;;;;;2.45;2.08;;;-16.80;94.50;;;;;;5034280;28;20124;-82
2024/01/02 04:15:06;;;;;;;10.80;5.20;;;-16.80;94.60;;;;;;5021049;28;20112;-83
2024/01/02 04:17:31;;;;;;;6.57;4.40;;;-16.90;94.40;;;;;;5035128;28;20243;-81
2024/01/02 04:19:57;;;;;;;7.15;4.20;;;-17.00;94.60;;;;;;5003073;28;20037;-82
2024/01/02 04:22:23;;;;;;;6.40;2.93;;;-17.00;94.80;;;;;;5006786;28;20014;-82
2024/01/02 04:24:49;;;;;;;3.57;2.83;;;-17.00;94.80;;;;;;5034533;28;20049;-82
2024/01/02 04:27:14;;;;;;;5.33;3.90;;;-16.90;94.90;;;;;;5016670;28;20076;-81
2024/01/02 04:29:40;;;;;;;3.90;2.20;;;-16.90;94.90;;;;;;5018111;28;20032;-81
2024/01/02 04:32:06;;;;;;;9.40;3.73;;;-16.90;94.80;;;;;;5028346;28;20049;-83
2024/01/02 04:34:32;;;;;;;11.52;5.80;;;-17.00;94.80;;;;;;5024691;28;20064;-83
2024/01/02 04:36:57;;;;;;;6.40;3.90;;;-17.00;94.80;;;;;;5005218;28;20041;-81
2024/01/02 04:39:23;;;;;;;11.73;2.87;;;-17.10;94.60;;;;;;5008116;28;20367;-80
2024/01/02 04:41:49;;;;;;;10.83;5.57;;;-17.10;94.70;;;;;;5037947;28;20057;-82
2024/01/02 04:44:15;;;;;;;6.00;3.63;;;-17.00;94.90;;;;;;5036519;28;20040;-82
2024/01/02 04:46:40;;;;;;;5.43;3.17;;;-17.00;94.90;;;;;;5036390;28;20018;-82
2024/01/02 04:49:06;;;;;;;5.47;3.50;;;-17.00;94.90;;;;;;5036297;28;20026;-80
2024/01/02 04:51:32;;;;;;;5.03;3.13;;;-17.00;95.00;;;;;;5036779;28;20024;-82
2024/01/02 04:53:58;;;;;;;10.83;6.17;;;-17.00;95.00;;;;;;5006156;28;20109;-81
2024/01/02 04:56:23;;;;;;;6.27;3.73;;;-17.00;94.80;;;;;;5029614;28;20391;-82
2024/01/02 04:58:50;;;;;;;6.87;2.90;;;-17.10;94.70;;;;;;5007761;28;20109;-84
2024/01/02 05:01:16;;;;;;;3.33;3.03;;;-17.00;94.80;;;;;;4996173;28;20049;-83
2024/01/02 05:03:42;;;;;;;5.73;4.07;;;-17.00;94.90;;;;;;5033741;28;20037;-82
2024/01/02 05:06:08;;;;;;;8.37;4.93;;;-17.00;94.80;;;;;;5034311;28;20255;-81
2024/01/02 05:08:34;;;;;;;7.60;4.50;;;-17.00;94.80;;;;;;4998807;28;20095;-80
2024/01/02 05:11:00;;;;;;;6.65;4.80;;;-17.00;94.60;;;;;;5037587;28;20040;-81
2024/01/02 05:13:25;;;;;;;8.57;2.13;;;-17.00;94.60;;;;;;5040029;28;20483;-81
2024/01/02 05:15:51;;;;;;;3.43;2.80;;;-17.00;94.50;;;;;;5009381;28;20032;-83
2024/01/02 05:18:17;;;;;;;7.67;3.13;;;-17.00;94.60;;;;;;5028984;28;20031;-80
2024/01/02 05:20:43;;;;;;;19.37;2.13;;;-17.00;94.30;;;;;;5021647;28;20034;-81
2024/01/02 05:23:09;;;;;;;3.17;1.30;;;-17.10;94.00;;;;;;5022025;28;20029;-83
2024/01/02 05:25:34;;;;;;;7.07;4.00;;;-17.10;93.90;;;;;;5015764;28;20363;-82
2024/01/02 05:28:06;;;;;;;6.03;3.60;;;-17.20;93.70;;;;;;5025244;28;20061;-83
2024/01/02 05:30:32;;;;;;;5.38;2.92;;;-17.20;93.70;;;;;;5036961;28;20371;-82
2024/01/02 05:32:57;;;;;;;5.63;3.10;;;-17.20;93.80;;;;;;5037154;28;20026;-81
2024/01/02 05:35:23;;;;;;;8.83;5.80;;;-17.10;93.90;;;;;;5036741;28;20465;-83
2024/01/02 05:37:49;;;;;;;9.03;3.83;;;-17.10;93.90;;;;;;5034900;28;20040;-81
2024/01/02 05:40:15;;;;;;;8.43;3.87;;;-17.10;93.70;;;;;;5020923;28;20383;-82
2024/01/02 05:42:40;;;;;;;5.50;2.90;;;-17.10;93.40;;;;;;5029319;28;20030;-81
2024/01/02 05:45:07;;;;;;;4.93;2.50;;;-17.10;93.50;;;;;;5039514;28;20069;-82
2024/01/02 05:47:33;;;;;;;3.17;2.50;;;-17.00;93.60;;;;;;5044493;28;20072;-81
2024/01/02 05:49:58;;;;;;;6.10;4.13;;;-17.00;93.40;;;;;;5033302;28;20030;-82
2024/01/02 05:52:24;;;;;;;3.77;2.77;;;-17.00;93.20;;;;;;5033367;28;20421;-83
2024/01/02 05:54:52;;;;;;;9.70;3.97;;;-17.10;93.00;;;;;;5001174;28;20429;-81
2024/01/02 05:57:19;;;;;;;5.35;3.63;;;-17.20;93.00;;;;;;5033083;28;20033;-81
2024/01/02 05:59:45;;;;;;;4.53;2.78;;;-17.30;93.00;;;;;;5031445;28;20140;-84
2024/01/02 06:02:11;;;;;;;5.75;3.22;;;-17.30;93.10;;;;;;5013688;28;20022;-81
2024/01/02 06:04:37;;;;;;;7.25;3.80;;;-17.30;93.40;;;;;;5027642;28;20128;-82
2024/01/02 06:07:02;;;;;;;7.90;3.42;;;-17.30;93.40;;;;;;4999815;28;20068;-83
2024/01/02 06:09:28;;;;;;;5.03;3.95;;;-17.30;93.40;;;;;;5034364;28;20034;-82
2024/01/02 06:11:54;;;;;;;8.20;3.38;;;-17.40;93.30;;;;;;5033901;28;20497;-83
2024/01/02 06:14:20;;;;;;;6.28;3.22;;;-17.40;93.50;;;;;;5032787;28;20044;-81
2024/01/02 06:16:46;;;;;;;7.45;4.38;;;-17.40;93.70;;;;;;5032908;28;20478;-83
2024/01/02 06:19:12;;;;;;;7.77;3.77;;;-17.40;93.80;;;;;;5034564;28;20131;-82
2024/01/02 06:21:37;;;;;;;6.37;4.30;;;-17.40;93.60;;;;;;5033589;28;20057;-81
2024/01/02 06:24:03;;;;;;;7.40;3.10;;;-17.30;94.00;;;;;;4995491;28;20034;-82
2024/01/02 06:26:29;;;;;;;6.22;4.18;;;-17.30;93.60;;;;;;5024904;28;20072;-83
2024/01/02 06:28:55;;;;;;;5.80;3.60;;;-17.40;93.40;;;;;;4998081;28;20479;-82
2024/01/02 06:31:22;;;;;;;5.10;3.73;;;-17.50;93.40;;;;;;5019476;28;20483;-82
2024/01/02 06:33:47;;;;;;;;;;;-17.50;93.50;;;;;;5029587;28;20459;-83
2024/01/02 06:36:14;;;;;;;5.97;2.25;;;-17.50;93.60;;;;;;5037497;28;19905;-82
2024/01/02 06:38:40;;;;;;;;;;;-17.50;93.50;;;;;;5042934;28;20100;-81
2024/01/02 06:41:06;;;;;;;3.58;1.85;;;-17.50;93.60;;;;;;5055564;28;19909;-83
2024/01/02 06:43:32;;;;;;;1.83;1.67;;;-17.40;93.60;;;;;;5052663;28;20064;-83
2024/01/02 06:45:57;;;;;;;1.80;1.70;;;-17.40;93.60;;;;;;5019537;28;20030;-83
2024/01/02 06:48:23;;;;;;;3.63;2.77;;;-17.40;93.70;;;;;;5027969;28;20025;-82
2024/01/02 06:50:49;;;;;;;8.10;3.07;;;-17.40;93.70;;;;;;5023060;28;20091;-82
2024/01/02 06:53:15;;;;;;;4.17;2.53;;;-17.40;93.60;;;;;;5035886;28;20399;-83
2024/01/02 06:55:41;;;;;;;1.83;1.60;;;-17.40;93.40;;;;;;5036171;28;20424;-83
2024/01/02 06:58:06;;;;;;;4.90;3.17;;;-17.50;93.30;;;;;;5036125;28;20029;-83
2024/01/02 07:00:33;;;;;;;5.50;2.73;;;-17.50;93.40;;;;;;5035831;28;20030;-81
2024/01/02 07:03:00;;;;;;;12.02;2.85;;;-17.50;93.40;;;;;;5035693;28;20017;-82
2024/01/02 07:05:27;;;;;;;4.80;2.80;;;-17.50;93.40;;;;;;5011505;28;20497;-83
2024/01/02 07:07:52;;;;;;;4.15;2.95;;;-17.50;93.40;;;;;;5028369;28;20035;-84
2024/01/02 07:10:18;;;;;;;5.07;2.80;;;-17.50;93.30;;;;;;5036047;28;20097;-83
2024/01/02 07:12:45;;;;;;;2.97;2.78;;;-17.50;93.10;;;;;;5035346;28;20353;-83
2024/01/02 07:15:11;;;;;;;2.90;2.70;;;-17.60;92.90;;;;;;5035589;28;20033;-83
2024/01/02 07:17:36;;;;;;;4.72;1.77;;;-17.80;92.80;;;;;;5009694;28;20026;-84
2024/01/02 07:20:02;;;;;;;3.40;2.27;;;-17.80;93.00;;;;;;5015853;28;20022;-83
2024/01/02 07:22:28;;;;;;;5.57;4.07;;;-17.80;93.00;;;;;;5021986;28;20025;-82
2024/01/02 07:24:55;;;;;;;9.73;4.72;;;-17.80;92.70;;;;;;4999687;28;20034;-84
2024/01/02 07:27:21;;;;;;;4.22;2.90;;;-17.80;92.60;;;;;;5040444;28;20379;-83
2024/01/02 07:29:47;;;;;;;;;;;-17.80;92.80;;;;;;5009327;28;20125;-83
2024/01/02 07:32:13;;;;;;;7.15;2.80;;;-17.70;92.90;;;;;;4998633;28;20413;-82
2024/01/02 07:34:39;;;;;;;6.23;4.07;;;-17.70;92.70;;;;;;5025250;28;20152;-82
2024/01/02 07:37:04;;;;;;;5.97;4.37;;;-17.80;92.60;;;;;;5037749;28;20286;-82
2024/01/02 07:39:30;;;;;;;3.10;2.80;;;-17.80;92.50;;;;;;5011189;28;20135;-83
2024/01/02 07:41:57;;;;;;;3.13;2.07;;;-17.80;92.60;;;;;;5030749;28;20105;-81
2024/01/02 07:44:23;;;;;;;;;;;-17.80;92.80;;;;;;5036160;28;20478;-82
2024/01/02 07:46:48;;;;;;;4.60;3.17;;;-17.70;92.90;;;;;;5024537;28;19910;-81
2024/01/02 07:49:16;;;;;;;4.90;2.65;;;-17.70;93.00;;;;;;5032373;28;20025;-81
2024/01/02 07:51:42;;;;;;;8.65;5.32;;;-17.70;92.50;;;;;;5035903;28;20017;-84
2024/01/02 07:54:08;;;;;;;4.72;2.85;;;-17.80;92.40;;;;;;5037656;28;20025;-84
2024/01/02 07:56:34;;;;;;;8.40;3.55;;;-17.70;92.70;;;;;;5036299;28;20021;-82
2024/01/02 07:59:00;;;;;;;9.47;4.40;;;-17.70;92.80;;;;;;5035162;28;20545;-83
2024/01/02 08:01:26;;;;;;;5.43;2.57;;;-17.70;92.50;;;;;;5020825;28;20075;-83
2024/01/02 08:03:52;;;;;;;12.23;4.85;;;-17.60;92.60;;;;;;5035344;28;20038;-83
2024/01/02 08:06:18;;;;;;;6.13;3.42;;;-17.50;92.70;;;;;;5037026;28;20036;-83
2024/01/02 08:08:44;;;;;;;6.73;3.60;;;-17.40;92.80;;;;;;5045713;28;20077;-82
2024/01/02 08:11:10;;;;;;;5.70;3.83;;;-17.30;92.80;;;;;;5020555;28;20116;-83
2024/01/02 08:13:35;;;;;;;5.47;3.13;;;-17.00;93.00;;;;;;5054391;28;20434;-82
2024/01/02 08:16:04;;;;;;;11.00;2.60;;;-16.90;92.70;;;;;;5027843;28;20030;-82
2024/01/02 08:18:30;;;;;;;5.22;3.20;;;-16.80;92.30;;;;;;5048346;28;20017;-82
2024/01/02 08:20:57;;;;;;;5.10;3.00;;;-16.80;92.10;;;;;;5025605;28;20428;-84
2024/01/02 08:23:27;;;;;;;6.55;4.40;;;-16.80;91.80;;;;;;5017204;28;20483;-83
2024/01/02 08:25:53;;;;;;;1.88;1.77;;;-16.80;91.70;;;;;;5054603;28;20116;-80
2024/01/02 08:28:18;;;;;;;4.63;2.93;;;-16.50;91.90;;;;;;5055366;28;20059;-83
2024/01/02 08:30:44;;;;;;;5.63;2.93;;;-16.50;91.20;;;;;;5055076;28;20028;-82
2024/01/02 08:33:10;;;;;;;8.10;3.73;;;-16.50;90.90;;;;;;5054890;28;20025;-83
2024/01/02 08:35:36;;;;;;;4.13;2.70;;;-16.40;91.10;;;;;;5054143;28;20053;-83
2024/01/02 08:38:03;;;;;;;6.65;4.57;;;-16.30;90.90;;;;;;5054108;28;20155;-84
2024/01/02 08:40:29;;;;;;;10.95;4.18;;;-16.20;90.30;;;;;;5054198;28;20021;-82
2024/01/02 08:42:55;;;;;;;6.10;2.87;;;-16.10;90.40;;;;;;5055235;28;20487;-84
2024/01/02 08:45:20;;;;;;;3.33;2.00;;;-16.00;90.40;;;;;;5045584;28;20504;-85
2024/01/02 08:47:46;;;;;;;5.57;4.07;;;-16.10;90.00;;;;;;5055722;28;20032;-83
2024/01/02 08:50:12;;;;;;;8.83;3.50;;;-16.00;90.10;;;;;;5046060;28;20025;-80
2024/01/02 08:52:38;;;;;;;10.47;4.40;;;-16.10;89.60;;;;;;5038071;28;20132;-83
2024/01/02 08:55:04;;;;;;;4.03;2.70;;;-16.20;89.40;;;;;;5016357;28;20028;-84
2024/01/02 08:57:31;;;;;;;10.50;3.28;;;-16.20;89.50;;;;;;5044643;28;20100;-82
2024/01/02 08:59:57;;;;;;;3.35;2.13;;;-16.20;89.80;;;;;;5050764;28;20021;-83
2024/01/02 09:02:23;;;;;;;4.75;2.88;;;-16.20;89.80;;;;;;5033509;28;20025;-81
2024/01/02 09:04:48;;;;;;;6.33;4.80;;;-16.40;89.80;;;;;;5048785;28;20427;-84
2024/01/02 09:07:14;;;;;;;14.10;4.70;;;-16.30;90.00;;;;;;5039905;28;20424;-82
2024/01/02 09:09:40;;;;;;;3.00;2.10;;;-16.30;89.70;;;;;;5046027;28;20018;-83
2024/01/02 09:12:08;;;;;;;6.13;4.00;;;-16.30;89.00;;;;;;5068863;28;20105;-83
2024/01/02 09:14:36;;;;;;;12.23;2.90;;;-16.50;88.60;;;;;;5054045;28;20363;-82
2024/01/02 09:17:03;;;;;;;8.27;3.00;;;-16.70;88.70;;;;;;5040116;28;20020;-84
2024/01/02 09:19:28;;;;;;;6.32;3.10;;;-16.70;89.40;;;;;;5053708;28;20429;-83
2024/01/02 09:21:54;;;;;;;5.73;3.27;;;-16.60;89.90;;;;;;5050793;28;20074;-83
2024/01/02 09:24:20;;;;;;;7.63;2.93;;;-16.50;90.00;;;;;;5053583;28;20056;-83
2024/01/02 09:26:50;;;;;;;4.65;2.45;;;-16.40;89.80;;;;;;5052766;28;20053;-83
2024/01/02 09:29:15;;;;;;;6.22;2.88;;;-16.40;89.60;;;;;;5017092;28;20395;-82
2024/01/02 09:31:41;;;;;;;5.23;2.57;;;-16.40;89.30;;;;;;5045788;28;20051;-81
2024/01/02 09:34:07;;;;;;;2.87;2.20;;;-16.50;89.10;;;;;;5053957;28;20099;-82
2024/01/02 09:36:33;;;;;;;5.27;3.07;;;-16.60;89.00;;;;;;5064626;28;20100;-83
2024/01/02 09:38:59;;;;;;;12.63;5.63;;;-16.70;89.00;;;;;;5064678;28;20036;-82
2024/01/02 09:41:27;;;;;;;7.87;4.30;;;-16.80;89.10;;;;;;5053454;28;20025;-83
2024/01/02 09:44:07;;;;;;;7.88;3.42;;;-16.90;89.10;;;;;;5052975;28;20719;-82
2024/01/02 09:47:10;;;;;;;5.45;2.75;;;-16.90;89.50;;;;;;5052966;28;20466;-81
2024/01/02 09:49:58;;;;;;;6.82;3.33;;;-16.90;90.00;;;;;;5053373;28;20021;-82
2024/01/02 09:52:35;;;;;;;6.97;4.50;;;-16.90;90.00;;;;;;5053030;28;20025;-84
2024/01/02 09:55:19;;;;;;;6.25;2.70;;;-16.90;90.00;;;;;;5053150;28;20013;-84
2024/01/02 09:58:06;;;;;;;6.18;4.25;;;-16.90;90.00;;;;;;5052997;28;20036;-83
2024/01/02 10:01:06;;;;;;;8.48;4.30;;;-17.00;90.00;;;;;;5053360;28;20033;-84
2024/01/02 10:03:56;;;;;;;1.98;1.75;;;-17.00;89.90;;;;;;5019074;28;20029;-84
2024/01/02 10:06:34;;;;;;;8.15;4.32;;;-17.20;89.90;;;;;;5053472;28;20033;-83
2024/01/02 10:09:26;;;;;;;8.18;4.15;;;-17.20;90.10;;;;;;5057998;28;20025;-82
2024/01/02 10:12:07;;;;;;;5.43;3.00;;;-17.30;90.20;;;;;;5057473;28;20049;-84
2024/01/02 10:15:02;;;;;;;3.92;2.70;;;-17.40;90.30;;;;;;5057472;28;20033;-82
2024/01/02 10:18:07;;;;;;;7.07;3.40;;;-17.40;90.30;;;;;;5032276;28;20024;-82
2024/01/02 10:20:51;;;;;;;2.90;2.50;;;-17.40;90.40;;;;;;5042667;28;20025;-82
2024/01/02 10:23:17;;;;;;;5.07;2.90;;;-17.30;90.40;;;;;;5025893;28;20079;-83
2024/01/02 10:25:44;;;;;;;7.50;4.00;;;-17.20;90.40;;;;;;5019379;28;20041;-82
2024/01/02 10:28:19;;;;;;;2.75;2.35;;;-17.20;90.40;;;;;;5048801;28;20032;-82
2024/01/02 10:31:03;;;;;;;8.73;4.03;;;-17.20;90.20;;;;;;5056855;28;20017;-83
2024/01/02 10:33:32;;;;;;;4.22;2.00;;;-17.30;90.20;;;;;;5058926;28;20025;-84
2024/01/02 10:36:12;;;;;;;6.30;4.20;;;-17.40;90.20;;;;;;5068186;28;20101;-84
2024/01/02 10:39:04;;;;;;;5.45;3.67;;;-17.30;90.50;;;;;;5066458;28;20021;-83
2024/01/02 10:41:49;;;;;;;6.07;3.40;;;-17.30;90.40;;;;;;5047741;28;20104;-83
2024/01/02 10:44:35;;;;;;;5.13;3.30;;;-17.30;90.20;;;;;;5056356;28;20146;-83
2024/01/02 10:47:17;;;;;;;6.68;4.05;;;-17.40;90.20;;;;;;5057281;28;20046;-84
2024/01/02 10:50:02;;;;;;;5.82;2.92;;;-17.50;90.30;;;;;;5063424;28;20029;-82
2024/01/02 10:52:55;;;;;;;6.00;3.28;;;-17.40;90.50;;;;;;5052997;28;20027;-81
2024/01/02 10:55:28;;;;;;;6.55;3.50;;;-17.40;90.60;;;;;;5031378;28;20026;-82
2024/01/02 10:58:15;;;;;;;4.00;3.05;;;-17.40;90.50;;;;;;5050148;28;20021;-84
2024/01/02 11:01:18;;;;;;;6.40;4.15;;;-17.40;90.40;;;;;;5018684;28;20021;-82
2024/01/02 11:04:10;;;;;;;5.05;3.47;;;-17.40;90.40;;;;;;5012359;28;20119;-83
2024/01/02 11:06:49;;;;;;;4.75;3.83;;;-17.40;90.30;;;;;;5063891;28;20055;-82
2024/01/02 11:09:26;;;;;;;6.55;3.85;;;-17.40;90.40;;;;;;5046028;28;20109;-83
2024/01/02 11:11:54;;;;;;;12.32;4.15;;;-17.40;90.30;;;;;;5014133;28;20128;-81
2024/01/02 11:14:24;;;;;;;10.43;4.50;;;-17.30;90.40;;;;;;5018053;28;20383;-82
2024/01/02 11:16:52;;;;;;;7.30;2.67;;;-17.30;90.30;;;;;;5001863;28;20040;-83
2024/01/02 11:19:27;;;;;;;6.85;4.00;;;-17.40;90.10;;;;;;5018725;28;20018;-84
2024/01/02 11:22:13;;;;;;;3.13;1.63;;;-17.30;90.10;;;;;;4998917;28;20018;-82
2024/01/02 11:24:50;;;;;;;10.25;2.97;;;-17.40;90.10;;;;;;5016435;28;20555;-83
2024/01/02 11:27:21;;;;;;;6.97;3.17;;;-17.40;90.00;;;;;;5015659;28;20025;-83
2024/01/02 11:29:49;;;;;;;6.20;3.13;;;-17.40;90.00;;;;;;5016098;28;20046;-83
2024/01/02 11:32:18;;;;;;;5.22;2.78;;;-17.40;89.80;;;;;;5016210;28;20018;-85
2024/01/02 11:35:00;;;;;;;13.00;5.53;;;-17.40;89.70;;;;;;5016154;28;20022;-84
2024/01/02 11:37:40;;;;;;;6.15;3.53;;;-17.50;89.60;;;;;;5016867;28;20017;-84
2024/01/02 11:40:15;;;;;;;9.38;2.95;;;-17.50;90.00;;;;;;5020232;28;20025;-82
2024/01/02 11:42:53;;;;;;;12.05;3.75;;;-17.50;90.00;;;;;;5019448;28;20022;-83
2024/01/02 11:45:23;;;;;;;10.07;3.67;;;-17.40;89.70;;;;;;5007876;28;20030;-82
2024/01/02 11:48:11;;;;;;;4.85;2.15;;;-17.50;89.60;;;;;;5023242;28;20018;-81
2024/01/02 11:50:57;;;;;;;23.90;3.40;;;-17.40;89.80;;;;;;5021333;28;20415;-82
2024/01/02 11:53:34;;;;;;;4.00;2.85;;;-17.40;89.90;;;;;;5002589;28;20470;-83
2024/01/02 11:56:06;;;;;;;7.78;4.40;;;-17.40;89.90;;;;;;5019443;28;20025;-82
2024/01/02 11:58:52;;;;;;;3.30;1.65;;;-17.40;89.80;;;;;;5002229;28;20021;-84
2024/01/02 12:01:45;;;;;;;5.05;3.42;;;-17.40;89.80;;;;;;5015910;28;20329;-83
2024/01/02 12:04:49;;;;;;;4.70;3.72;;;-17.40;89.70;;;;;;5016080;28;20052;-82
2024/01/02 12:07:21;;;;;;;3.75;2.47;;;-17.40;89.90;;;;;;4983179;28;20087;-82
2024/01/02 12:09:49;;;;;;;6.53;2.50;;;-17.50;90.00;;;;;;5017852;28;20014;-83
2024/01/02 12:12:41;;;;;;;6.88;2.92;;;-17.40;90.20;;;;;;5029290;28;20053;-82
2024/01/02 12:15:21;;;;;;;12.48;4.97;;;-17.30;90.40;;;;;;5005165;28;20030;-84
2024/01/02 12:17:57;;;;;;;4.55;2.20;;;-17.30;90.40;;;;;;5028649;28;20096;-82
2024/01/02 12:20:25;;;;;;;6.10;3.92;;;-17.20;90.50;;;;;;5000611;28;20087;-82
2024/01/02 12:22:52;;;;;;;4.25;3.10;;;-17.20;90.50;;;;;;4998975;28;20033;-81
2024/01/02 12:25:19;;;;;;;8.32;4.30;;;-17.10;90.50;;;;;;5032437;28;20065;-84
2024/01/02 12:27:48;;;;;;;6.90;2.72;;;-17.10;90.50;;;;;;5012043;28;20036;-82
2024/01/02 12:30:47;;;;;;;3.13;2.00;;;-17.10;90.50;;;;;;5042569;28;20021;-82
2024/01/02 12:33:33;;;;;;;2.90;1.85;;;-17.10;90.50;;;;;;5054878;28;20021;-83
2024/01/02 12:35:59;;;;;;;5.30;2.30;;;-17.10;90.50;;;;;;5045148;28;20044;-82
2024/01/02 12:38:27;;;;;;;10.97;4.80;;;-17.20;90.30;;;;;;5035752;28;20475;-83
2024/01/02 12:40:58;;;;;;;7.22;4.32;;;-17.20;90.40;;;;;;5034847;28;20048;-84
2024/01/02 12:43:25;;;;;;;5.88;4.25;;;-17.20;90.40;;;;;;5035621;28;20049;-84
2024/01/02 12:46:12;;;;;;;8.75;2.97;;;-17.20;90.40;;;;;;5035727;28;20029;-82